createdAt,value
2019-02-22T00:01:09.248Z,11.73
2019-02-22T00:03:37.454Z,11.74
2019-02-22T00:06:05.518Z,11.77
2019-02-22T00:08:35.179Z,11.79
2019-02-22T00:11:03.244Z,11.80
2019-02-22T00:13:31.815Z,11.82
2019-02-22T00:15:59.886Z,11.85
2019-02-22T00:18:28.001Z,11.87
2019-02-22T00:20:56.364Z,11.91
2019-02-22T00:23:24.463Z,11.95
2019-02-22T00:25:52.532Z,11.99
2019-02-22T00:28:22.163Z,12.01
2019-02-22T00:30:50.198Z,12.03
2019-02-22T00:33:18.287Z,12.02
2019-02-22T00:35:46.358Z,11.98
2019-02-22T00:38:14.506Z,11.93
2019-02-22T00:40:42.710Z,11.90
2019-02-22T00:43:11.143Z,11.86
2019-02-22T00:45:39.685Z,11.84
2019-02-22T00:48:07.802Z,11.83
2019-02-22T00:50:36.119Z,11.80
2019-02-22T00:53:04.212Z,11.79
2019-02-22T00:55:32.370Z,11.79
2019-02-22T00:58:00.723Z,11.78
2019-02-22T01:00:29.099Z,11.77
2019-02-22T01:02:57.247Z,11.78
2019-02-22T01:05:26.356Z,11.79
2019-02-22T01:07:56.565Z,11.80
2019-02-22T01:10:31.119Z,11.80
2019-02-22T01:12:54.946Z,11.79
2019-02-22T01:15:24.909Z,11.74
2019-02-22T01:17:53.180Z,11.73
2019-02-22T01:20:21.950Z,11.69
2019-02-22T01:22:50.171Z,11.65
2019-02-22T01:25:18.211Z,11.60
2019-02-22T01:27:46.411Z,11.57
2019-02-22T01:30:14.477Z,11.57
2019-02-22T01:32:42.570Z,11.57
2019-02-22T01:35:10.623Z,11.57
2019-02-22T01:37:39.078Z,11.58
2019-02-22T01:40:09.081Z,11.57
2019-02-22T01:42:37.662Z,11.56
2019-02-22T01:45:06.339Z,11.55
2019-02-22T01:47:34.449Z,11.51
2019-02-22T01:50:02.879Z,11.47
2019-02-22T01:52:32.137Z,11.44
2019-02-22T01:55:00.344Z,11.43
2019-02-22T01:57:28.926Z,11.41
2019-02-22T01:59:57.038Z,11.40
2019-02-22T02:02:25.116Z,11.40
2019-02-22T02:04:53.328Z,11.39
2019-02-22T02:07:21.411Z,11.38
2019-02-22T02:09:49.591Z,11.39
2019-02-22T02:12:18.728Z,11.41
2019-02-22T02:14:47.278Z,11.41
2019-02-22T02:17:17.714Z,11.44
2019-02-22T02:19:45.652Z,11.46
2019-02-22T02:22:13.809Z,11.47
2019-02-22T02:24:41.889Z,11.47
2019-02-22T02:27:10.268Z,11.47
2019-02-22T02:29:38.313Z,11.44
2019-02-22T02:32:06.091Z,11.42
2019-02-22T02:34:34.984Z,11.40
2019-02-22T02:37:03.216Z,11.41
2019-02-22T02:39:31.422Z,11.41
2019-02-22T02:41:59.521Z,11.43
2019-02-22T02:44:27.585Z,11.43
2019-02-22T02:46:55.951Z,11.44
2019-02-22T02:49:24.022Z,11.46
2019-02-22T02:51:52.104Z,11.46
2019-02-22T02:54:20.201Z,11.48
2019-02-22T02:56:48.318Z,11.49
2019-02-22T02:59:16.653Z,11.51
2019-02-22T03:01:44.944Z,11.52
2019-02-22T03:04:13.054Z,11.54
2019-02-22T03:07:04.308Z,11.57
2019-02-22T03:09:32.953Z,11.58
2019-02-22T03:12:01.118Z,11.59
2019-02-22T03:14:30.428Z,11.61
2019-02-22T03:16:58.477Z,11.63
2019-02-22T03:19:26.557Z,11.64
2019-02-22T03:21:54.696Z,11.65
2019-02-22T03:24:23.044Z,11.65
2019-02-22T03:26:51.100Z,11.68
2019-02-22T03:29:19.513Z,11.68
2019-02-22T03:31:48.572Z,11.68
2019-02-22T03:34:16.618Z,11.70
2019-02-22T03:36:44.668Z,11.71
2019-02-22T03:39:12.710Z,11.72
2019-02-22T03:41:40.803Z,11.75
2019-02-22T03:44:08.882Z,11.78
2019-02-22T03:46:36.912Z,11.81
2019-02-22T03:49:04.972Z,11.84
2019-02-22T03:51:33.012Z,11.86
2019-02-22T03:54:02.414Z,11.85
2019-02-22T03:56:30.483Z,11.86
2019-02-22T03:58:58.559Z,11.87
2019-02-22T04:01:26.672Z,11.90
2019-02-22T04:03:54.761Z,11.93
2019-02-22T04:06:22.821Z,11.95
2019-02-22T04:08:51.900Z,11.96
2019-02-22T04:11:19.971Z,11.99
2019-02-22T04:13:48.568Z,11.99
2019-02-22T04:16:16.736Z,11.99
2019-02-22T04:18:45.108Z,11.99
2019-02-22T04:21:13.171Z,12.00
2019-02-22T04:23:41.219Z,12.00
2019-02-22T04:26:09.396Z,11.95
2019-02-22T04:28:37.464Z,11.90
2019-02-22T04:31:05.533Z,11.85
2019-02-22T04:33:33.588Z,11.83
2019-02-22T04:36:01.717Z,11.81
2019-02-22T04:38:31.457Z,11.83
2019-02-22T04:40:59.531Z,11.85
2019-02-22T04:43:27.582Z,11.87
2019-02-22T04:45:55.813Z,11.90
2019-02-22T04:48:23.943Z,11.92
2019-02-22T04:50:52.032Z,11.94
2019-02-22T04:53:23.337Z,11.95
2019-02-22T04:55:51.867Z,11.98
2019-02-22T04:58:20.208Z,11.97
2019-02-22T05:00:48.432Z,11.96
2019-02-22T05:03:16.487Z,11.95
2019-02-22T05:05:44.888Z,11.98
2019-02-22T05:08:12.957Z,12.01
2019-02-22T05:10:41.013Z,12.01
2019-02-22T05:13:09.136Z,11.99
2019-02-22T05:15:37.242Z,11.97
2019-02-22T05:18:05.362Z,11.93
2019-02-22T05:20:33.580Z,11.92
2019-02-22T05:23:04.437Z,11.90
2019-02-22T05:25:31.812Z,11.89
2019-02-22T05:28:00.021Z,11.87
2019-02-22T05:30:28.341Z,11.87
2019-02-22T05:32:56.685Z,11.86
2019-02-22T05:35:24.734Z,11.84
2019-02-22T05:37:52.884Z,11.81
2019-02-22T05:40:21.263Z,11.80
2019-02-22T05:42:50.640Z,11.82
2019-02-22T05:45:18.737Z,11.83
2019-02-22T05:47:47.107Z,11.86
2019-02-22T05:50:15.158Z,11.85
2019-02-22T05:52:43.227Z,11.86
2019-02-22T05:55:11.288Z,11.86
2019-02-22T05:57:39.341Z,11.88
2019-02-22T06:00:07.995Z,11.88
2019-02-22T06:02:36.044Z,11.88
2019-02-22T06:05:04.500Z,11.84
2019-02-22T06:07:32.746Z,11.82
2019-02-22T06:10:01.108Z,11.81
2019-02-22T06:12:34.526Z,11.82
2019-02-22T06:14:59.176Z,11.79
2019-02-22T06:17:27.320Z,11.78
2019-02-22T06:19:55.360Z,11.75
2019-02-22T06:22:29.542Z,11.73
2019-02-22T06:24:53.444Z,11.73
2019-02-22T06:27:21.487Z,11.74
2019-02-22T06:29:49.973Z,11.75
2019-02-22T06:32:18.501Z,11.76
2019-02-22T06:34:46.551Z,11.76
2019-02-22T06:37:14.616Z,11.78
2019-02-22T06:39:42.677Z,11.79
2019-02-22T06:42:10.739Z,11.81
2019-02-22T06:44:38.783Z,11.82
2019-02-22T06:47:06.834Z,11.82
2019-02-22T06:49:35.914Z,11.82
2019-02-22T06:52:03.975Z,11.82
2019-02-22T06:54:32.040Z,11.83
2019-02-22T06:57:00.486Z,11.82
2019-02-22T06:59:28.511Z,11.81
2019-02-22T07:01:56.556Z,11.79
2019-02-22T07:04:24.619Z,11.75
2019-02-22T07:06:52.693Z,11.73
2019-02-22T07:09:20.728Z,11.71
2019-02-22T07:12:14.147Z,11.70
2019-02-22T07:14:42.176Z,11.70
2019-02-22T07:17:10.239Z,11.70
2019-02-22T07:19:38.278Z,11.72
2019-02-22T07:22:06.637Z,11.74
2019-02-22T07:24:34.680Z,11.75
2019-02-22T07:27:03.067Z,11.75
2019-02-22T07:29:31.098Z,11.75
2019-02-22T07:32:05.864Z,11.76
2019-02-22T07:34:29.124Z,11.78
2019-02-22T07:36:57.207Z,11.79
2019-02-22T07:39:28.155Z,11.80
2019-02-22T07:41:55.167Z,11.82
2019-02-22T07:44:23.565Z,11.85
2019-02-22T07:46:51.625Z,11.87
2019-02-22T07:49:24.966Z,11.89
2019-02-22T07:51:55.855Z,11.92
2019-02-22T07:54:23.874Z,11.95
2019-02-22T07:56:51.933Z,11.98
2019-02-22T07:59:19.959Z,11.98
2019-02-22T08:01:48.370Z,11.97
2019-02-22T08:04:16.475Z,11.97
2019-02-22T08:06:44.712Z,11.96
2019-02-22T08:09:12.753Z,11.97
2019-02-22T08:11:40.800Z,11.97
2019-02-22T08:14:08.923Z,11.97
2019-02-22T08:16:37.310Z,11.96
2019-02-22T08:19:05.395Z,11.96
2019-02-22T08:21:33.419Z,11.98
2019-02-22T08:24:01.488Z,11.99
2019-02-22T08:26:29.812Z,12.03
2019-02-22T08:28:58.142Z,12.06
2019-02-22T08:31:26.442Z,12.11
2019-02-22T08:33:57.077Z,12.17
2019-02-22T08:36:24.782Z,12.22
2019-02-22T08:38:53.121Z,12.28
2019-02-22T08:41:21.191Z,12.32
2019-02-22T08:43:49.573Z,12.37
2019-02-22T08:46:17.681Z,12.40
2019-02-22T08:48:46.156Z,12.43
2019-02-22T08:51:14.236Z,12.47
2019-02-22T08:53:42.517Z,12.50
2019-02-22T08:56:10.550Z,12.54
2019-02-22T08:58:38.589Z,12.57
2019-02-22T09:01:06.647Z,12.61
2019-02-22T09:03:36.214Z,12.65
2019-02-22T09:06:04.243Z,12.70
2019-02-22T09:08:33.364Z,12.74
2019-02-22T09:11:01.402Z,12.79
2019-02-22T09:13:29.476Z,12.84
2019-02-22T09:15:57.525Z,12.91
2019-02-22T09:18:25.585Z,12.97
2019-02-22T09:20:54.039Z,13.03
2019-02-22T09:23:22.523Z,13.09
2019-02-22T09:25:50.594Z,13.14
2019-02-22T09:28:18.683Z,13.18
2019-02-22T09:30:46.725Z,13.25
2019-02-22T09:33:15.070Z,13.30
2019-02-22T09:35:43.121Z,13.33
2019-02-22T09:38:11.224Z,13.34
2019-02-22T09:40:39.547Z,13.35
2019-02-22T09:43:07.638Z,13.36
2019-02-22T09:45:35.689Z,13.38
2019-02-22T09:48:03.790Z,13.41
2019-02-22T09:50:31.940Z,13.45
2019-02-22T09:53:00.305Z,13.50
2019-02-22T09:55:28.359Z,13.57
2019-02-22T09:57:56.479Z,13.64
2019-02-22T10:00:26.245Z,13.71
2019-02-22T10:02:54.309Z,13.77
2019-02-22T10:05:22.271Z,13.84
2019-02-22T10:07:50.343Z,13.89
2019-02-22T10:10:18.744Z,13.97
2019-02-22T10:12:47.122Z,14.02
2019-02-22T10:15:15.439Z,14.07
2019-02-22T10:17:44.016Z,14.13
2019-02-22T10:20:12.194Z,14.19
2019-02-22T10:22:40.249Z,14.27
2019-02-22T10:25:08.400Z,14.34
2019-02-22T10:27:36.611Z,14.41
2019-02-22T10:30:04.962Z,14.48
2019-02-22T10:32:33.737Z,14.57
2019-02-22T10:35:01.926Z,14.64
2019-02-22T10:37:30.103Z,14.73
2019-02-22T10:39:58.171Z,14.80
2019-02-22T10:42:27.247Z,14.87
2019-02-22T10:44:55.334Z,14.94
2019-02-22T10:47:23.501Z,15.03
2019-02-22T10:49:51.588Z,15.14
2019-02-22T10:52:19.659Z,15.22
2019-02-22T10:54:47.718Z,15.33
2019-02-22T10:57:15.824Z,15.44
2019-02-22T10:59:43.877Z,15.57
2019-02-22T11:02:11.932Z,15.71
2019-02-22T11:04:39.985Z,15.86
2019-02-22T11:07:08.025Z,16.03
2019-02-22T11:09:36.099Z,16.20
2019-02-22T11:12:04.238Z,16.35
2019-02-22T11:14:32.284Z,16.52
2019-02-22T11:17:00.701Z,16.72
2019-02-22T11:19:28.786Z,16.88
2019-02-22T11:21:57.092Z,17.07
2019-02-22T11:24:25.398Z,17.25
2019-02-22T11:26:53.695Z,17.41
2019-02-22T11:29:22.044Z,17.59
2019-02-22T11:31:50.356Z,17.76
2019-02-22T11:34:18.721Z,17.91
2019-02-22T11:36:47.066Z,18.06
2019-02-22T11:39:15.408Z,18.20
2019-02-22T11:41:43.433Z,18.32
2019-02-22T11:44:11.526Z,18.43
2019-02-22T11:46:39.543Z,18.58
2019-02-22T11:49:07.608Z,18.70
2019-02-22T11:51:35.638Z,18.82
2019-02-22T11:54:04.920Z,18.94
2019-02-22T11:56:32.980Z,19.08
2019-02-22T11:59:02.144Z,19.25
2019-02-22T12:01:30.209Z,19.43
2019-02-22T12:03:58.291Z,19.62
2019-02-22T12:06:26.597Z,19.81
2019-02-22T12:08:54.806Z,20.01
2019-02-22T12:11:22.874Z,20.20
2019-02-22T12:13:51.016Z,20.36
2019-02-22T12:16:19.062Z,20.54
2019-02-22T12:18:47.268Z,20.73
2019-02-22T12:21:16.368Z,20.95
2019-02-22T12:23:44.693Z,21.12
2019-02-22T12:26:12.722Z,21.31
2019-02-22T12:28:40.773Z,21.49
2019-02-22T12:31:08.758Z,21.64
2019-02-22T12:33:36.854Z,21.77
2019-02-22T12:36:04.906Z,21.91
2019-02-22T12:38:33.980Z,22.10
2019-02-22T12:41:02.038Z,22.31
2019-02-22T12:43:30.232Z,22.61
2019-02-22T12:45:58.300Z,22.87
2019-02-22T12:48:26.364Z,23.10
2019-02-22T12:50:54.409Z,23.30
2019-02-22T12:53:22.444Z,23.52
2019-02-22T12:55:50.487Z,23.69
2019-02-22T12:58:18.525Z,23.86
2019-02-22T13:00:46.606Z,24.02
2019-02-22T13:03:14.817Z,24.17
2019-02-22T13:05:42.877Z,24.35
2019-02-22T13:08:12.337Z,24.53
2019-02-22T13:10:40.412Z,24.71
2019-02-22T13:13:08.476Z,24.89
2019-02-22T13:15:36.533Z,25.07
2019-02-22T13:18:04.591Z,25.22
2019-02-22T13:20:32.652Z,25.43
2019-02-22T13:23:01.262Z,25.67
2019-02-22T13:25:29.616Z,25.84
2019-02-22T13:27:57.693Z,25.98
2019-02-22T13:30:25.745Z,26.17
2019-02-22T13:32:53.856Z,26.36
2019-02-22T13:35:22.203Z,26.49
2019-02-22T13:37:50.840Z,26.61
2019-02-22T13:40:18.909Z,26.80
2019-02-22T13:42:46.975Z,26.93
2019-02-22T13:45:26.059Z,27.06
2019-02-22T13:47:45.629Z,27.18
2019-02-22T13:50:13.982Z,27.24
2019-02-22T13:52:42.077Z,27.22
2019-02-22T13:55:10.247Z,27.16
2019-02-22T13:57:38.717Z,27.06
2019-02-22T14:00:10.844Z,26.92
2019-02-22T14:02:38.972Z,26.76
2019-02-22T14:05:07.591Z,26.61
2019-02-22T14:07:35.678Z,26.47
2019-02-22T14:10:04.076Z,26.29
2019-02-22T14:12:33.113Z,26.12
2019-02-22T14:15:01.174Z,25.98
2019-02-22T14:17:29.524Z,25.84
2019-02-22T14:19:58.140Z,25.71
2019-02-22T14:22:26.231Z,25.53
2019-02-22T14:24:54.361Z,25.34
2019-02-22T14:27:22.431Z,25.12
2019-02-22T14:29:51.819Z,24.85
2019-02-22T14:32:27.698Z,24.59
2019-02-22T14:34:55.893Z,24.34
2019-02-22T14:37:23.957Z,24.07
2019-02-22T14:40:01.061Z,23.80
2019-02-22T14:42:23.298Z,23.57
2019-02-22T14:44:52.502Z,23.31
2019-02-22T14:47:20.560Z,23.06
2019-02-22T14:49:48.746Z,22.81
2019-02-22T14:52:16.788Z,22.56
2019-02-22T14:54:44.889Z,22.31
2019-02-22T14:57:17.566Z,22.14
2019-02-22T14:59:45.706Z,21.98
2019-02-22T15:02:14.417Z,21.83
2019-02-22T15:04:45.156Z,21.66
2019-02-22T15:07:13.879Z,21.49
2019-02-22T15:09:42.514Z,21.30
2019-02-22T15:12:12.074Z,21.12
2019-02-22T15:14:40.213Z,20.96
2019-02-22T15:17:33.443Z,20.80
2019-02-22T15:20:18.392Z,20.64
2019-02-22T15:22:46.674Z,20.46
2019-02-22T15:25:14.965Z,20.27
2019-02-22T15:27:43.017Z,20.10
2019-02-22T15:30:12.706Z,19.95
2019-02-22T15:32:40.700Z,19.83
2019-02-22T15:35:11.523Z,19.71
2019-02-22T15:37:43.194Z,19.60
2019-02-22T15:40:11.083Z,19.49
2019-02-22T15:42:40.770Z,19.37
2019-02-22T15:45:10.341Z,19.27
2019-02-22T15:47:51.608Z,19.18
2019-02-22T15:50:19.695Z,19.06
2019-02-22T15:52:48.764Z,18.94
2019-02-22T15:55:16.860Z,18.84
2019-02-22T15:57:45.271Z,18.76
2019-02-22T16:00:21.427Z,18.69
2019-02-22T16:02:50.034Z,18.61
2019-02-22T16:05:39.939Z,18.51
2019-02-22T16:08:08.400Z,18.39
2019-02-22T16:10:36.479Z,18.28
2019-02-22T16:13:04.526Z,18.19
2019-02-22T16:15:33.076Z,18.09
2019-02-22T16:18:01.456Z,17.99
2019-02-22T16:20:29.721Z,17.91
2019-02-22T16:22:58.223Z,17.84
2019-02-22T16:25:26.374Z,17.77
2019-02-22T16:27:54.501Z,17.70
2019-02-22T16:30:26.793Z,17.61
2019-02-22T16:32:54.838Z,17.55
2019-02-22T16:35:23.685Z,17.49
2019-02-22T16:37:52.027Z,17.42
2019-02-22T16:40:21.922Z,17.37
2019-02-22T16:42:49.976Z,17.31
2019-02-22T16:45:18.177Z,17.27
2019-02-22T16:47:46.563Z,17.20
2019-02-22T16:50:14.652Z,17.13
2019-02-22T16:52:45.163Z,17.08
2019-02-22T16:55:13.954Z,17.03
2019-02-22T16:57:42.343Z,17.00
2019-02-22T17:00:12.286Z,16.96
2019-02-22T17:02:40.545Z,16.91
2019-02-22T17:05:11.357Z,16.87
2019-02-22T17:07:41.233Z,16.82
2019-02-22T17:10:09.852Z,16.77
2019-02-22T17:12:38.207Z,16.71
2019-02-22T17:15:07.723Z,16.64
2019-02-22T17:17:35.828Z,16.60
2019-02-22T17:20:04.978Z,16.56
2019-02-22T17:22:33.060Z,16.51
2019-02-22T17:25:01.096Z,16.46
2019-02-22T17:27:30.001Z,16.43
2019-02-22T17:29:59.311Z,16.39
2019-02-22T17:32:28.062Z,16.33
2019-02-22T17:34:56.523Z,16.26
2019-02-22T17:37:24.948Z,16.21
2019-02-22T17:39:53.434Z,16.13
2019-02-22T17:42:21.991Z,16.06
2019-02-22T17:44:50.030Z,16.00
2019-02-22T17:47:19.531Z,15.95
2019-02-22T17:49:47.587Z,15.88
2019-02-22T17:52:15.696Z,15.80
2019-02-22T17:54:43.974Z,15.75
2019-02-22T17:57:12.355Z,15.69
2019-02-22T17:59:40.673Z,15.62
2019-02-22T18:02:09.797Z,15.58
2019-02-22T18:04:38.256Z,15.52
2019-02-22T18:07:06.477Z,15.47
2019-02-22T18:09:34.852Z,15.41
2019-02-22T18:12:02.956Z,15.35
2019-02-22T18:14:31.092Z,15.30
2019-02-22T18:17:07.974Z,15.24
2019-02-22T18:19:31.707Z,15.19
2019-02-22T18:21:59.886Z,15.13
2019-02-22T18:24:28.894Z,15.06
2019-02-22T18:26:57.016Z,15.00
2019-02-22T18:29:35.094Z,14.94
2019-02-22T18:31:56.403Z,14.89
2019-02-22T18:34:24.521Z,14.80
2019-02-22T18:36:52.615Z,14.73
2019-02-22T18:39:20.712Z,14.66
2019-02-22T18:41:48.917Z,14.59
2019-02-22T18:44:18.807Z,14.51
2019-02-22T18:46:47.021Z,14.45
2019-02-22T18:49:15.066Z,14.37
2019-02-22T18:51:43.168Z,14.28
2019-02-22T18:54:11.219Z,14.19
2019-02-22T18:56:39.779Z,14.11
2019-02-22T18:59:08.081Z,14.04
2019-02-22T19:01:36.204Z,13.94
2019-02-22T19:04:04.277Z,13.86
2019-02-22T19:06:32.444Z,13.78
2019-02-22T19:09:00.779Z,13.69
2019-02-22T19:11:28.865Z,13.61
2019-02-22T19:13:56.915Z,13.50
2019-02-22T19:16:25.012Z,13.42
2019-02-22T19:18:53.053Z,13.32
2019-02-22T19:21:21.130Z,13.23
2019-02-22T19:23:49.171Z,13.16
2019-02-22T19:26:17.252Z,13.07
2019-02-22T19:28:45.278Z,13.01
2019-02-22T19:31:13.383Z,12.93
2019-02-22T19:33:41.449Z,12.85
2019-02-22T19:36:09.541Z,12.78
2019-02-22T19:38:37.578Z,12.73
2019-02-22T19:41:05.791Z,12.66
2019-02-22T19:43:33.942Z,12.58
2019-02-22T19:46:02.086Z,12.50
2019-02-22T19:48:30.510Z,12.42
2019-02-22T19:50:58.564Z,12.33
2019-02-22T19:53:26.699Z,12.26
2019-02-22T19:55:55.023Z,12.18
2019-02-22T19:58:23.420Z,12.13
2019-02-22T20:00:51.497Z,12.06
2019-02-22T20:03:19.781Z,11.97
2019-02-22T20:05:47.920Z,11.92
2019-02-22T20:08:16.100Z,11.88
2019-02-22T20:10:44.269Z,11.85
2019-02-22T20:13:13.583Z,11.82
2019-02-22T20:15:41.631Z,11.78
2019-02-22T20:18:09.752Z,11.73
2019-02-22T20:20:37.878Z,11.69
2019-02-22T20:23:06.219Z,11.61
2019-02-22T20:25:34.261Z,11.54
2019-02-22T20:28:02.642Z,11.45
2019-02-22T20:30:30.714Z,11.41
2019-02-22T20:32:58.896Z,11.38
2019-02-22T20:35:26.946Z,11.33
2019-02-22T20:37:55.370Z,11.27
2019-02-22T20:40:24.421Z,11.21
2019-02-22T20:42:52.644Z,11.17
2019-02-22T20:45:20.780Z,11.14
2019-02-22T20:47:49.048Z,11.07
2019-02-22T20:50:17.333Z,11.01
2019-02-22T20:52:45.537Z,10.94
2019-02-22T20:55:13.589Z,10.90
2019-02-22T20:57:41.696Z,10.87
2019-02-22T21:00:13.121Z,10.84
2019-02-22T21:02:41.315Z,10.78
